Time;durP1;ratioP1;P1;durP2;ratioP2;P2;SDS_P1;SDS_P2;PMS_P1;PMS_P2;Temp;Humidity;BMP_temperature;BMP_pressure;BME280_temperature;BME280_humidity;BME280_pressure;Samples;Min_cycle;Max_cycle;Signal;HPM_P1;HPM_P2
2023/08/01 00:00:17;;;;;;;1.40;0.95;;;;;;;;;;6190248;28;19917;-66
2023/08/01 00:03:17;;;;;;;2.00;1.07;;;;;;;;;;6187166;28;20097;-65
2023/08/01 00:06:19;;;;;;;1.23;1.03;;;;;;;;;;6188548;28;20280;-63
2023/08/01 00:09:19;;;;;;;1.75;1.17;;;;;;;;;;6171396;28;20288;-63
2023/08/01 00:12:20;;;;;;;2.27;1.10;;;;;;;;;;6187943;28;20137;-65
2023/08/01 00:15:20;;;;;;;;;;;;;;;;;;6191471;28;20026;-65
2023/08/01 00:18:20;;;;;;;1.40;1.00;;;;;;;;;;6188460;28;19918;-64
2023/08/01 00:21:20;;;;;;;;;;;;;;;;;;6187496;28;20014;-63
2023/08/01 00:24:20;;;;;;;1.55;1.10;;;;;;;;;;6190124;28;20038;-67
2023/08/01 00:27:21;;;;;;;1.20;1.07;;;;;;;;;;5495302;28;10000836;-65
2023/08/01 00:30:21;;;;;;;1.40;1.00;;;;;;;;;;5169368;28;10000974;-64
2023/08/01 00:33:21;;;;;;;1.85;1.13;;;;;;;;;;5848768;28;9999940;-64
2023/08/01 00:36:21;;;;;;;;;;;;;;;;;;6185674;28;20026;-64
2023/08/01 00:39:22;;;;;;;1.73;0.98;;;;;;;;;;6187999;28;19968;-63
2023/08/01 00:42:22;;;;;;;1.17;0.90;;;;;;;;;;6185418;28;20126;-66
2023/08/01 00:45:24;;;;;;;;;;;;;;;;;;6187068;28;20141;-64
2023/08/01 00:48:24;;;;;;;1.75;0.88;;;;;;;;;;6185641;28;19956;-66
2023/08/01 00:51:25;;;;;;;1.20;1.03;;;;;;;;;;6187223;28;20398;-66
2023/08/01 00:54:26;;;;;;;0.98;0.80;;;;;;;;;;6185900;28;20418;-64
2023/08/01 00:57:26;;;;;;;1.70;1.05;;;;;;;;;;6187762;28;20019;-63
2023/08/01 01:00:27;;;;;;;;;;;;;;;;;;6185006;28;20034;-62
2023/08/01 01:03:27;;;;;;;0.70;0.70;;;;;;;;;;5840289;28;9999921;-62
2023/08/01 01:06:33;;;;;;;1.25;1.00;;;;;;;;;;5981247;28;10000521;-62
2023/08/01 01:09:33;;;;;;;1.00;0.90;;;;;;;;;;6186781;28;20763;-64
2023/08/01 01:12:33;;;;;;;1.53;1.43;;;;;;;;;;6185147;28;20104;-64
2023/08/01 01:15:33;;;;;;;;;;;;;;;;;;6189973;28;20027;-63
2023/08/01 01:18:33;;;;;;;1.50;1.17;;;;;;;;;;6187099;28;19983;-62
2023/08/01 01:21:52;;;;;;;1.70;1.23;;;;;;;;;;6184881;28;20427;-63
2023/08/01 01:24:53;;;;;;;1.88;1.15;;;;;;;;;;6186750;28;20351;-63
2023/08/01 01:27:54;;;;;;;1.25;1.15;;;;;;;;;;6188498;28;20134;-63
2023/08/01 01:30:54;;;;;;;;;;;;;;;;;;6187530;28;20539;-64
2023/08/01 01:33:54;;;;;;;1.50;1.10;;;;;;;;;;6185127;28;19921;-64
2023/08/01 01:36:55;;;;;;;;;;;;;;;;;;6188432;28;20053;-64
2023/08/01 01:39:55;;;;;;;2.00;0.80;;;;;;;;;;6186866;28;19914;-64
2023/08/01 01:42:55;;;;;;;1.53;1.17;;;;;;;;;;6192625;28;20406;-63
2023/08/01 01:45:55;;;;;;;;;;;;;;;;;;6185322;28;20370;-64
2023/08/01 01:48:57;;;;;;;1.45;1.02;;;;;;;;;;6186317;28;19921;-63
2023/08/01 01:51:57;;;;;;;1.60;1.20;;;;;;;;;;6188985;28;20015;-64
2023/08/01 01:54:58;;;;;;;3.03;1.20;;;;;;;;;;6188981;28;20520;-65
2023/08/01 01:57:58;;;;;;;;;;;;;;;;;;6187296;28;20026;-64
2023/08/01 02:00:58;;;;;;;1.77;1.10;;;;;;;;;;6183683;28;20427;-65
2023/08/01 02:03:58;;;;;;;1.97;1.13;;;;;;;;;;6187340;28;20038;-65
2023/08/01 02:06:58;;;;;;;;;;;;;;;;;;6187216;28;20045;-65
2023/08/01 02:09:59;;;;;;;1.90;1.00;;;;;;;;;;6184429;28;19913;-63
2023/08/01 02:12:59;;;;;;;3.35;1.38;;;;;;;;;;6189916;28;20101;-66
2023/08/01 02:15:59;;;;;;;;;;;;;;;;;;6189212;28;20044;-65
2023/08/01 02:19:00;;;;;;;1.10;0.88;;;;;;;;;;6186795;28;20012;-66
2023/08/01 02:22:00;;;;;;;2.03;1.00;;;;;;;;;;6184059;28;20340;-66
2023/08/01 02:25:00;;;;;;;;;;;;;;;;;;6186257;28;20014;-65
2023/08/01 02:28:00;;;;;;;2.25;1.10;;;;;;;;;;6186738;28;19924;-66
2023/08/01 02:31:00;;;;;;;1.03;0.90;;;;;;;;;;6187024;28;20046;-65
2023/08/01 02:34:00;;;;;;;;;;;;;;;;;;6184442;28;20057;-65
2023/08/01 02:37:01;;;;;;;1.10;1.00;;;;;;;;;;4820521;28;10001011;-67
2023/08/01 02:40:01;;;;;;;;;;;;;;;;;;6188148;28;20474;-64
2023/08/01 02:43:01;;;;;;;1.05;0.90;;;;;;;;;;6184412;28;19988;-69
2023/08/01 02:46:01;;;;;;;1.70;1.23;;;;;;;;;;6190203;28;20201;-65
2023/08/01 02:49:02;;;;;;;;;;;;;;;;;;6194100;28;20041;-66
2023/08/01 02:52:03;;;;;;;1.10;0.83;;;;;;;;;;6191334;28;19917;-62
2023/08/01 02:55:03;;;;;;;1.73;1.00;;;;;;;;;;6191986;28;20391;-65
2023/08/01 02:58:03;;;;;;;;;;;;;;;;;;6195296;28;20033;-63
2023/08/01 03:01:07;;;;;;;2.05;1.10;;;;;;;;;;6188400;28;20016;-66
2023/08/01 03:04:07;;;;;;;1.20;1.10;;;;;;;;;;6190228;28;20117;-64
2023/08/01 03:07:07;;;;;;;;;;;;;;;;;;6186165;28;20550;-63
2023/08/01 03:10:07;;;;;;;2.38;1.02;;;;;;;;;;6188294;28;20488;-64
2023/08/01 03:13:07;;;;;;;;;;;;;;;;;;6191641;28;20092;-64
2023/08/01 03:16:10;;;;;;;1.30;1.00;;;;;;;;;;6185274;28;19972;-63
2023/08/01 03:19:10;;;;;;;1.23;1.08;;;;;;;;;;6191420;28;20034;-64
2023/08/01 03:22:10;;;;;;;;;;;;;;;;;;6187741;28;20025;-64
2023/08/01 03:25:11;;;;;;;1.55;0.70;;;;;;;;;;6191048;28;20438;-64
2023/08/01 03:28:11;;;;;;;;;;;;;;;;;;6190700;28;20038;-64
2023/08/01 03:31:11;;;;;;;1.63;0.98;;;;;;;;;;6191519;28;19913;-65
2023/08/01 03:34:12;;;;;;;;;;;;;;;;;;6188557;28;20046;-64
2023/08/01 03:37:13;;;;;;;1.67;0.80;;;;;;;;;;6185905;28;19924;-60
2023/08/01 03:40:13;;;;;;;;;;;;;;;;;;6191558;28;20023;-64
2023/08/01 03:43:14;;;;;;;1.15;1.00;;;;;;;;;;6186831;28;19936;-66
2023/08/01 03:46:14;;;;;;;;;;;;;;;;;;6189278;28;20027;-64
2023/08/01 03:49:14;;;;;;;1.08;0.98;;;;;;;;;;6189020;28;19929;-64
2023/08/01 03:52:14;;;;;;;;;;;;;;;;;;6191619;28;20287;-64
2023/08/01 03:55:15;;;;;;;1.35;0.90;;;;;;;;;;6188738;28;20454;-65
2023/08/01 03:58:15;;;;;;;;;;;;;;;;;;6189705;28;20089;-63
2023/08/01 04:01:15;;;;;;;1.08;0.95;;;;;;;;;;6190378;28;20075;-64
2023/08/01 04:04:17;;;;;;;1.10;1.00;;;;;;;;;;6188084;28;20396;-66
2023/08/01 04:07:17;;;;;;;;;;;;;;;;;;6185264;28;20037;-68
2023/08/01 04:10:17;;;;;;;1.23;0.85;;;;;;;;;;6171957;28;20278;-66
2023/08/01 04:13:17;;;;;;;;;;;;;;;;;;6171003;28;20030;-67
2023/08/01 04:16:17;;;;;;;1.77;0.93;;;;;;;;;;6182149;28;19918;-65
2023/08/01 04:19:18;;;;;;;;;;;;;;;;;;6174726;28;20428;-61
2023/08/01 04:22:18;;;;;;;1.33;0.80;;;;;;;;;;6171425;28;20374;-64
2023/08/01 04:25:18;;;;;;;1.53;1.07;;;;;;;;;;6171232;28;20023;-66
2023/08/01 04:28:18;;;;;;;2.60;1.03;;;;;;;;;;6178956;28;20395;-64
2023/08/01 04:31:18;;;;;;;;;;;;;;;;;;6174057;28;20084;-64
2023/08/01 04:37:56;;;;;;;3.08;1.13;;;;;;;;;;6183041;28;20034;-67
2023/08/01 04:40:56;;;;;;;;;;;;;;;;;;6174114;28;20513;-64
2023/08/01 04:43:57;;;;;;;1.85;0.90;;;;;;;;;;6176290;28;20204;-63
2023/08/01 04:46:57;;;;;;;;;;;;;;;;;;6170140;28;20046;-65
2023/08/01 04:49:57;;;;;;;1.20;0.88;;;;;;;;;;6171726;28;20337;-63
2023/08/01 04:52:57;;;;;;;;;;;;;;;;;;6172156;28;20485;-63
2023/08/01 04:55:57;;;;;;;1.83;0.90;;;;;;;;;;6176156;28;20366;-64
2023/08/01 04:58:57;;;;;;;;;;;;;;;;;;6174121;28;20096;-64
2023/08/01 05:01:58;;;;;;;1.13;0.98;;;;;;;;;;6180529;28;19909;-63
2023/08/01 05:04:58;;;;;;;;;;;;;;;;;;6168391;28;20023;-66
2023/08/01 05:07:58;;;;;;;2.33;1.23;;;;;;;;;;6178021;28;20001;-61
2023/08/01 05:10:58;;;;;;;;;;;;;;;;;;6179255;28;20538;-63
2023/08/01 05:13:58;;;;;;;2.65;2.33;;;;;;;;;;6175434;28;19999;-63
2023/08/01 05:16:59;;;;;;;;;;;;;;;;;;6174247;28;20022;-63
2023/08/01 05:19:59;;;;;;;1.80;1.30;;;;;;;;;;6173584;28;19936;-65
2023/08/01 05:22:59;;;;;;;;;;;;;;;;;;6168648;28;20045;-63
2023/08/01 05:25:59;;;;;;;2.70;2.15;;;;;;;;;;6178488;28;19921;-63
2023/08/01 05:28:59;;;;;;;;;;;;;;;;;;6178842;28;20049;-57
2023/08/01 05:32:00;;;;;;;1.92;1.60;;;;;;;;;;6174218;28;20005;-65
2023/08/01 05:35:00;;;;;;;;;;;;;;;;;;6172954;28;20445;-63
2023/08/01 05:38:00;;;;;;;1.60;1.30;;;;;;;;;;6177360;28;20008;-63
2023/08/01 05:41:00;;;;;;;;;;;;;;;;;;6178697;28;20034;-65
2023/08/01 05:44:00;;;;;;;3.20;1.40;;;;;;;;;;6190332;28;20262;-66
2023/08/01 05:47:01;;;;;;;1.70;1.33;;;;;;;;;;6185670;28;20030;-62
2023/08/01 05:50:01;;;;;;;;;;;;;;;;;;6173760;28;20383;-64
2023/08/01 05:53:01;;;;;;;1.33;1.23;;;;;;;;;;6179304;28;19910;-64
2023/08/01 05:56:01;;;;;;;1.70;1.38;;;;;;;;;;6168133;28;20482;-65
2023/08/01 05:59:02;;;;;;;2.38;1.48;;;;;;;;;;6164874;28;20064;-65
2023/08/01 06:02:02;;;;;;;2.15;1.48;;;;;;;;;;6176675;28;20178;-64
2023/08/01 06:05:03;;;;;;;2.85;2.00;;;;;;;;;;6169726;28;20045;-64
2023/08/01 06:08:05;;;;;;;2.38;1.48;;;;;;;;;;6173358;28;20033;-64
2023/08/01 06:11:05;;;;;;;2.53;1.45;;;;;;;;;;6183946;28;20053;-63
2023/08/01 06:14:05;;;;;;;2.50;1.43;;;;;;;;;;6171463;28;20289;-64
2023/08/01 06:17:06;;;;;;;2.00;1.20;;;;;;;;;;6171024;28;20304;-63
2023/08/01 06:20:06;;;;;;;2.20;1.50;;;;;;;;;;6180074;28;20346;-65
2023/08/01 06:23:06;;;;;;;2.47;1.73;;;;;;;;;;6175944;28;20266;-65
2023/08/01 06:26:07;;;;;;;1.87;1.50;;;;;;;;;;6193231;28;20048;-65
2023/08/01 06:29:07;;;;;;;2.17;1.47;;;;;;;;;;6193977;28;20595;-64
2023/08/01 06:32:07;;;;;;;2.17;1.53;;;;;;;;;;6178810;28;21749;-65
2023/08/01 06:35:07;;;;;;;2.60;1.60;;;;;;;;;;6179294;28;20041;-63
2023/08/01 06:38:08;;;;;;;2.60;1.58;;;;;;;;;;6192411;28;20427;-65
2023/08/01 06:41:08;;;;;;;2.10;1.80;;;;;;;;;;6185702;28;20026;-63
2023/08/01 06:44:08;;;;;;;3.40;2.13;;;;;;;;;;6175232;28;21832;-63
2023/08/01 06:47:08;;;;;;;2.13;1.90;;;;;;;;;;6177519;28;20042;-61
2023/08/01 06:50:09;;;;;;;2.00;1.77;;;;;;;;;;6180836;28;20330;-63
2023/08/01 06:53:10;;;;;;;1.70;1.45;;;;;;;;;;6172355;28;20328;-65
2023/08/01 06:56:10;;;;;;;1.92;1.63;;;;;;;;;;6172517;28;20130;-68
2023/08/01 06:59:10;;;;;;;1.20;1.10;;;;;;;;;;6172664;28;20066;-63
2023/08/01 07:02:10;;;;;;;1.73;1.30;;;;;;;;;;6184133;28;20353;-64
2023/08/01 07:05:11;;;;;;;1.83;1.40;;;;;;;;;;6168882;28;20278;-64
2023/08/01 07:08:11;;;;;;;2.00;1.70;;;;;;;;;;6175294;28;20369;-57
2023/08/01 07:11:11;;;;;;;2.00;1.53;;;;;;;;;;6171452;28;20046;-64
2023/08/01 07:14:11;;;;;;;1.77;1.30;;;;;;;;;;6186918;28;20432;-67
2023/08/01 07:17:12;;;;;;;1.92;1.73;;;;;;;;;;6175910;28;20102;-67
2023/08/01 07:20:12;;;;;;;3.60;2.20;;;;;;;;;;6175362;28;20760;-66
2023/08/01 07:23:12;;;;;;;2.30;1.90;;;;;;;;;;6173613;28;20646;-65
2023/08/01 07:26:12;;;;;;;1.60;1.30;;;;;;;;;;6173262;28;20482;-64
2023/08/01 07:29:15;;;;;;;2.00;1.40;;;;;;;;;;6175390;28;20167;-66
2023/08/01 07:32:15;;;;;;;1.73;1.60;;;;;;;;;;6175454;28;20022;-65
2023/08/01 07:35:16;;;;;;;1.97;1.33;;;;;;;;;;6175088;28;20432;-67
2023/08/01 07:38:16;;;;;;;2.40;1.20;;;;;;;;;;6190097;28;20274;-66
2023/08/01 07:41:16;;;;;;;2.05;1.27;;;;;;;;;;6171873;28;20277;-66
2023/08/01 07:44:16;;;;;;;2.72;1.20;;;;;;;;;;6181089;28;20551;-69
2023/08/01 07:47:17;;;;;;;1.83;1.40;;;;;;;;;;6174159;28;20071;-66
2023/08/01 07:50:17;;;;;;;1.67;1.13;;;;;;;;;;6177438;28;20238;-67
2023/08/01 07:53:17;;;;;;;1.60;1.30;;;;;;;;;;6186472;28;20710;-68
2023/08/01 07:56:18;;;;;;;1.60;1.20;;;;;;;;;;6193567;28;20018;-67
2023/08/01 07:59:18;;;;;;;2.38;1.50;;;;;;;;;;6190335;28;20288;-66
2023/08/01 08:02:18;;;;;;;2.47;1.33;;;;;;;;;;6193281;28;20440;-66
2023/08/01 08:05:18;;;;;;;2.53;1.50;;;;;;;;;;6189737;28;20317;-65
2023/08/01 08:08:19;;;;;;;1.77;1.40;;;;;;;;;;5843943;28;9999965;-66
2023/08/01 08:11:19;;;;;;;1.63;1.40;;;;;;;;;;6184830;28;20037;-65
2023/08/01 08:14:21;;;;;;;1.90;1.63;;;;;;;;;;6182030;28;20101;-66
2023/08/01 08:17:21;;;;;;;1.80;1.45;;;;;;;;;;6192109;28;20301;-65
2023/08/01 08:20:21;;;;;;;1.60;1.50;;;;;;;;;;6183024;28;20053;-65
2023/08/01 08:23:22;;;;;;;1.90;1.50;;;;;;;;;;6189180;28;20280;-66
2023/08/01 08:26:23;;;;;;;1.97;1.33;;;;;;;;;;6189680;28;20027;-65
2023/08/01 08:29:24;;;;;;;2.55;1.63;;;;;;;;;;6189146;28;20336;-66
2023/08/01 08:32:24;;;;;;;2.40;1.30;;;;;;;;;;6184789;28;20054;-65
2023/08/01 08:35:24;;;;;;;2.27;1.47;;;;;;;;;;6187927;28;20034;-64
2023/08/01 08:38:24;;;;;;;2.38;1.60;;;;;;;;;;6189206;28;20710;-65
2023/08/01 08:41:27;;;;;;;4.90;1.95;;;;;;;;;;6190427;28;20018;-64
2023/08/01 08:44:30;;;;;;;2.28;1.70;;;;;;;;;;6188883;28;20058;-68
2023/08/01 08:47:31;;;;;;;1.77;1.65;;;;;;;;;;6188357;28;20112;-64
2023/08/01 08:50:33;;;;;;;2.88;1.58;;;;;;;;;;6188648;28;20431;-64
2023/08/01 08:53:34;;;;;;;2.42;1.92;;;;;;;;;;6187710;28;20030;-64
2023/08/01 08:56:35;;;;;;;2.15;1.70;;;;;;;;;;6185999;28;20037;-65
2023/08/01 08:59:35;;;;;;;2.92;1.52;;;;;;;;;;6189126;28;20026;-66
2023/08/01 09:02:35;;;;;;;1.85;1.58;;;;;;;;;;6182585;28;20584;-65
2023/08/01 09:05:48;;;;;;;1.70;1.50;;;;;;;;;;6186686;28;20282;-65
2023/08/01 09:08:55;;;;;;;3.65;1.70;;;;;;;;;;6186557;28;20285;-66
2023/08/01 09:11:56;;;;;;;2.08;1.65;;;;;;;;;;6184719;28;20026;-66
2023/08/01 09:14:56;;;;;;;2.08;1.52;;;;;;;;;;6180620;28;20034;-66
2023/08/01 09:18:00;;;;;;;1.88;1.67;;;;;;;;;;6186158;28;20053;-68
2023/08/01 09:21:04;;;;;;;1.63;1.40;;;;;;;;;;6185983;28;20084;-69
2023/08/01 09:24:11;;;;;;;1.90;1.52;;;;;;;;;;6181561;28;20032;-71
2023/08/01 09:27:11;;;;;;;1.98;1.23;;;;;;;;;;6187813;28;20483;-68
2023/08/01 09:30:15;;;;;;;1.93;1.47;;;;;;;;;;6179476;28;20018;-67
2023/08/01 09:33:15;;;;;;;2.10;1.33;;;;;;;;;;6183722;28;20745;-66
2023/08/01 09:36:22;;;;;;;2.42;2.22;;;;;;;;;;6186851;28;20050;-68
2023/08/01 09:39:22;;;;;;;3.22;2.47;;;;;;;;;;6188984;28;20018;-69
2023/08/01 09:42:22;;;;;;;3.25;1.95;;;;;;;;;;6186308;28;20038;-72
2023/08/01 09:45:23;;;;;;;3.33;2.17;;;;;;;;;;6192781;28;20081;-71
2023/08/01 09:48:25;;;;;;;2.47;1.52;;;;;;;;;;6186846;28;20776;-70
2023/08/01 09:51:26;;;;;;;1.75;1.40;;;;;;;;;;6180829;28;20088;-69
2023/08/01 09:54:27;;;;;;;1.77;1.40;;;;;;;;;;6187500;28;20026;-67
2023/08/01 09:57:29;;;;;;;2.05;1.73;;;;;;;;;;6188960;28;20029;-71
2023/08/01 10:00:29;;;;;;;4.05;3.65;;;;;;;;;;6182240;28;20031;-67
2023/08/01 10:03:30;;;;;;;4.95;2.88;;;;;;;;;;6183847;28;20041;-68
2023/08/01 10:06:33;;;;;;;2.80;2.10;;;;;;;;;;6182462;28;20065;-66
2023/08/01 10:09:35;;;;;;;2.95;2.05;;;;;;;;;;6183901;28;20431;-66
2023/08/01 10:12:36;;;;;;;1.90;1.70;;;;;;;;;;6190802;28;20092;-66
2023/08/01 10:15:36;;;;;;;;;;;;;;;;;;6189060;28;20026;-67
2023/08/01 10:18:40;;;;;;;2.42;1.13;;;;;;;;;;6181330;28;19906;-65
2023/08/01 10:21:44;;;;;;;1.60;1.50;;;;;;;;;;6193654;28;20038;-66
2023/08/01 10:24:44;;;;;;;2.50;1.67;;;;;;;;;;6186807;28;20321;-65
2023/08/01 10:27:44;;;;;;;;;;;;;;;;;;6189578;28;20046;-65
2023/08/01 10:30:45;;;;;;;1.90;1.40;;;;;;;;;;6186524;28;20004;-66
2023/08/01 10:33:45;;;;;;;;;;;;;;;;;;6191220;28;20109;-67
2023/08/01 10:37:06;;;;;;;1.70;1.52;;;;;;;;;;6188803;28;19909;-67
2023/08/01 10:40:06;;;;;;;2.72;1.80;;;;;;;;;;6188890;28;20042;-66
2023/08/01 10:43:06;;;;;;;;;;;;;;;;;;6193817;28;20034;-66
2023/08/01 10:46:07;;;;;;;2.65;1.77;;;;;;;;;;6190259;28;20103;-66
2023/08/01 10:49:07;;;;;;;;;;;;;;;;;;6193710;28;20144;-66
2023/08/01 10:52:27;;;;;;;2.22;1.25;;;;;;;;;;6181834;28;20059;-67
2023/08/01 10:55:27;;;;;;;1.95;1.63;;;;;;;;;;6187645;28;20030;-67
2023/08/01 10:58:27;;;;;;;;;;;;;;;;;;6192942;28;20025;-67
2023/08/01 11:01:28;;;;;;;3.92;1.58;;;;;;;;;;6188065;28;19917;-67
2023/08/01 11:04:28;;;;;;;;;;;;;;;;;;6190057;28;20014;-68
2023/08/01 11:07:28;;;;;;;1.67;1.45;;;;;;;;;;6189113;28;19919;-67
2023/08/01 11:10:28;;;;;;;;;;;;;;;;;;6185960;28;20057;-65
2023/08/01 11:13:29;;;;;;;2.00;1.58;;;;;;;;;;6187097;28;19914;-66
2023/08/01 11:16:29;;;;;;;;;;;;;;;;;;6189696;28;20041;-67
2023/08/01 11:19:30;;;;;;;2.13;1.77;;;;;;;;;;6190971;28;19920;-68
2023/08/01 11:22:30;;;;;;;;;;;;;;;;;;6193552;28;20042;-67
2023/08/01 11:25:36;;;;;;;2.28;1.48;;;;;;;;;;6187628;28;19995;-66
2023/08/01 11:28:37;;;;;;;4.95;1.88;;;;;;;;;;6189632;28;20510;-68
2023/08/01 11:31:37;;;;;;;;;;;;;;;;;;6190363;28;20026;-67
2023/08/01 11:34:44;;;;;;;1.98;1.55;;;;;;;;;;6188861;28;20384;-67
2023/08/01 11:37:44;;;;;;;2.30;1.58;;;;;;;;;;6191929;28;20436;-66
2023/08/01 11:40:44;;;;;;;;;;;;;;;;;;6192157;28;20037;-66
2023/08/01 11:43:45;;;;;;;2.07;1.50;;;;;;;;;;6185325;28;19949;-64
2023/08/01 11:46:45;;;;;;;;;;;;;;;;;;6190889;28;20045;-66
2023/08/01 11:49:49;;;;;;;2.10;1.50;;;;;;;;;;6190076;28;20031;-67
2023/08/01 11:52:49;;;;;;;2.15;1.95;;;;;;;;;;6186841;28;20379;-65
2023/08/01 11:55:52;;;;;;;;;;;;;;;;;;6184520;28;20022;-66
2023/08/01 11:58:52;;;;;;;2.90;1.55;;;;;;;;;;6186789;28;19910;-68
2023/08/01 12:01:52;;;;;;;;;;;;;;;;;;6185115;28;20026;-67
2023/08/01 12:04:54;;;;;;;1.98;1.42;;;;;;;;;;5835781;28;10000326;-66
2023/08/01 12:07:54;;;;;;;2.33;1.88;;;;;;;;;;6189503;28;20093;-71
2023/08/01 12:10:54;;;;;;;;;;;;;;;;;;6190117;28;20033;-68
2023/08/01 12:14:01;;;;;;;2.07;1.40;;;;;;;;;;6187591;28;19914;-67
2023/08/01 12:17:01;;;;;;;1.63;1.52;;;;;;;;;;6187882;28;20030;-67
2023/08/01 12:20:01;;;;;;;;;;;;;;;;;;6192715;28;20434;-66
2023/08/01 12:23:01;;;;;;;1.67;1.58;;;;;;;;;;6193011;28;19952;-65
2023/08/01 12:26:02;;;;;;;;;;;;;;;;;;6186969;28;20101;-67
2023/08/01 12:29:02;;;;;;;1.70;1.60;;;;;;;;;;6188514;28;20047;-67
2023/08/01 12:32:02;;;;;;;;;;;;;;;;;;6190832;28;20018;-67
2023/08/01 12:35:02;;;;;;;2.90;1.70;;;;;;;;;;6189043;28;20617;-66
2023/08/01 12:38:02;;;;;;;;;;;;;;;;;;6195823;28;20018;-65
2023/08/01 12:41:03;;;;;;;2.92;1.98;;;;;;;;;;6192072;28;19953;-66
2023/08/01 12:44:03;;;;;;;;;;;;;;;;;;6192422;28;20348;-66
2023/08/01 12:47:03;;;;;;;2.88;1.40;;;;;;;;;;6192875;28;20345;-66
2023/08/01 12:50:03;;;;;;;;;;;;;;;;;;6194686;28;20065;-67
2023/08/01 12:53:03;;;;;;;2.17;1.52;;;;;;;;;;6191312;28;19914;-66
2023/08/01 12:56:04;;;;;;;;;;;;;;;;;;6193353;28;20048;-66
2023/08/01 12:59:04;;;;;;;2.47;2.03;;;;;;;;;;6191188;28;19960;-64
2023/08/01 13:02:08;;;;;;;;;;;;;;;;;;6193539;28;20534;-67
2023/08/01 13:05:08;;;;;;;1.50;1.35;;;;;;;;;;6190083;28;19917;-67
2023/08/01 13:08:08;;;;;;;;;;;;;;;;;;6189948;28;20391;-67
2023/08/01 13:11:12;;;;;;;2.33;1.25;;;;;;;;;;6189484;28;19913;-68
2023/08/01 13:14:13;;;;;;;2.03;1.58;;;;;;;;;;6191924;28;20105;-67
2023/08/01 13:17:13;;;;;;;2.67;1.67;;;;;;;;;;6189233;28;20022;-69
2023/08/01 13:20:13;;;;;;;;;;;;;;;;;;6187922;28;20018;-67
2023/08/01 13:23:13;;;;;;;4.43;1.40;;;;;;;;;;6191561;28;19910;-67
2023/08/01 13:26:13;;;;;;;;;;;;;;;;;;6189710;28;20037;-66
2023/08/01 13:29:14;;;;;;;2.95;1.25;;;;;;;;;;6190342;28;20040;-67
2023/08/01 13:32:14;;;;;;;;;;;;;;;;;;6189078;28;20442;-66
2023/08/01 13:35:15;;;;;;;1.55;1.27;;;;;;;;;;6192483;28;19921;-65
2023/08/01 13:38:17;;;;;;;2.45;1.30;;;;;;;;;;5842072;28;10000019;-65
2023/08/01 13:41:17;;;;;;;2.10;1.75;;;;;;;;;;6187658;28;20032;-65
2023/08/01 13:44:17;;;;;;;2.57;1.87;;;;;;;;;;6187397;28;20459;-64
2023/08/01 13:47:17;;;;;;;;;;;;;;;;;;6188676;28;20033;-66
2023/08/01 13:50:18;;;;;;;4.25;1.75;;;;;;;;;;6191025;28;19928;-65
2023/08/01 13:53:18;;;;;;;;;;;;;;;;;;6191069;28;20023;-65
2023/08/01 13:56:18;;;;;;;6.82;1.65;;;;;;;;;;6190226;28;20141;-66
2023/08/01 13:59:18;;;;;;;6.57;1.73;;;;;;;;;;5839038;28;10000020;-67
2023/08/01 14:02:19;;;;;;;;;;;;;;;;;;6187367;28;20054;-66
2023/08/01 14:05:19;;;;;;;1.90;1.52;;;;;;;;;;6191429;28;20005;-65
2023/08/01 14:08:19;;;;;;;3.53;1.40;;;;;;;;;;6189550;28;20018;-66
2023/08/01 14:11:19;;;;;;;;;;;;;;;;;;6189811;28;20473;-66
2023/08/01 14:14:19;;;;;;;5.38;1.25;;;;;;;;;;6191023;28;20282;-68
2023/08/01 14:17:19;;;;;;;;;;;;;;;;;;6189895;28;20085;-66
2023/08/01 14:20:20;;;;;;;1.50;1.25;;;;;;;;;;6189484;28;20004;-65
2023/08/01 14:23:20;;;;;;;1.87;1.30;;;;;;;;;;6189135;28;20416;-66
2023/08/01 14:26:20;;;;;;;;;;;;;;;;;;6191062;28;20085;-67
2023/08/01 14:29:22;;;;;;;1.17;1.08;;;;;;;;;;6190988;28;19917;-66
2023/08/01 14:32:22;;;;;;;1.70;1.10;;;;;;;;;;6187598;28;20121;-67
2023/08/01 14:35:22;;;;;;;1.57;1.03;;;;;;;;;;6186384;28;20467;-68
2023/08/01 14:38:22;;;;;;;;;;;;;;;;;;6191550;28;20030;-66
2023/08/01 14:41:23;;;;;;;1.10;0.85;;;;;;;;;;6194277;28;20009;-65
2023/08/01 14:44:23;;;;;;;0.77;0.73;;;;;;;;;;6194227;28;20037;-64
2023/08/01 14:47:23;;;;;;;;;;;;;;;;;;6194095;28;20022;-65
2023/08/01 14:50:23;;;;;;;2.33;1.05;;;;;;;;;;6194042;28;20003;-66
2023/08/01 14:53:24;;;;;;;1.50;1.20;;;;;;;;;;6190984;28;20397;-67
2023/08/01 14:56:24;;;;;;;;;;;;;;;;;;6186590;28;20178;-66
2023/08/01 14:59:24;;;;;;;1.15;1.02;;;;;;;;;;6194930;28;20019;-67
2023/08/01 15:02:24;;;;;;;2.00;1.20;;;;;;;;;;6195750;28;20034;-67
2023/08/01 15:05:24;;;;;;;1.77;1.20;;;;;;;;;;6194488;28;20108;-68
2023/08/01 15:08:25;;;;;;;1.20;0.97;;;;;;;;;;6195006;28;20092;-66
2023/08/01 15:11:25;;;;;;;;;;;;;;;;;;6191831;28;20018;-68
2023/08/01 15:14:25;;;;;;;2.45;1.00;;;;;;;;;;6192243;28;20228;-65
2023/08/01 15:17:25;;;;;;;1.00;0.90;;;;;;;;;;6195070;28;20025;-64
2023/08/01 15:20:25;;;;;;;;;;;;;;;;;;6190282;28;20030;-64
2023/08/01 15:23:25;;;;;;;1.23;0.80;;;;;;;;;;6191703;28;19910;-66
2023/08/01 15:26:26;;;;;;;1.27;1.17;;;;;;;;;;6187477;28;20160;-65
2023/08/01 15:29:26;;;;;;;;;;;;;;;;;;6196396;28;20064;-69
2023/08/01 15:32:26;;;;;;;1.05;0.95;;;;;;;;;;6193831;28;19906;-64
2023/08/01 15:35:28;;;;;;;1.07;0.97;;;;;;;;;;6197336;28;20011;-67
2023/08/01 15:38:30;;;;;;;1.35;1.10;;;;;;;;;;6186309;28;20030;-68
2023/08/01 15:41:30;;;;;;;3.20;1.38;;;;;;;;;;6191973;28;20049;-63
2023/08/01 15:44:30;;;;;;;1.33;1.23;;;;;;;;;;6190843;28;20026;-69
2023/08/01 15:47:30;;;;;;;1.70;1.10;;;;;;;;;;6188999;28;20299;-67
2023/08/01 15:50:31;;;;;;;;;;;;;;;;;;6194810;28;20030;-66
2023/08/01 15:53:31;;;;;;;1.40;1.23;;;;;;;;;;6190202;28;19920;-69
2023/08/01 15:56:31;;;;;;;1.67;1.23;;;;;;;;;;6190591;28;20092;-70
2023/08/01 15:59:34;;;;;;;;;;;;;;;;;;5947599;28;9999715;-71
2023/08/01 16:02:35;;;;;;;1.92;1.23;;;;;;;;;;6186922;28;20072;-67
2023/08/01 16:05:35;;;;;;;2.20;1.30;;;;;;;;;;6194285;28;20058;-70
2023/08/01 16:08:35;;;;;;;;;;;;;;;;;;6200888;28;20014;-66
2023/08/01 16:11:35;;;;;;;2.53;1.30;;;;;;;;;;6190071;28;20000;-70
2023/08/01 16:14:35;;;;;;;1.37;1.27;;;;;;;;;;6189616;28;20042;-67
2023/08/01 16:17:36;;;;;;;;;;;;;;;;;;6190265;28;20025;-72
2023/08/01 16:20:37;;;;;;;1.92;1.38;;;;;;;;;;6195546;28;20382;-69
2023/08/01 16:23:37;;;;;;;1.48;1.23;;;;;;;;;;6192401;28;20022;-67
2023/08/01 16:26:37;;;;;;;;;;;;;;;;;;6191783;28;20033;-68
2023/08/01 16:29:37;;;;;;;1.90;1.23;;;;;;;;;;6189795;28;19940;-67
2023/08/01 16:32:37;;;;;;;1.37;1.20;;;;;;;;;;6190353;28;20527;-65
2023/08/01 16:35:38;;;;;;;;;;;;;;;;;;6187501;28;20038;-66
2023/08/01 16:38:38;;;;;;;1.48;1.08;;;;;;;;;;6189350;28;19947;-67
2023/08/01 16:41:38;;;;;;;1.85;1.38;;;;;;;;;;6190959;28;20028;-67
2023/08/01 16:44:38;;;;;;;1.43;1.33;;;;;;;;;;6187218;28;20030;-66
2023/08/01 16:47:39;;;;;;;;;;;;;;;;;;6180568;28;20030;-65
2023/08/01 16:50:39;;;;;;;4.15;1.27;;;;;;;;;;6181952;28;19982;-65
2023/08/01 16:53:39;;;;;;;1.77;1.37;;;;;;;;;;6170603;28;20014;-66
2023/08/01 16:56:39;;;;;;;2.07;1.37;;;;;;;;;;6177890;28;20038;-66
2023/08/01 16:59:39;;;;;;;;;;;;;;;;;;6176191;28;20189;-65
2023/08/01 17:02:39;;;;;;;1.73;1.20;;;;;;;;;;6172988;28;19967;-65
2023/08/01 17:05:40;;;;;;;1.53;1.33;;;;;;;;;;6176757;28;20034;-66
2023/08/01 17:08:40;;;;;;;2.50;1.70;;;;;;;;;;6172876;28;20019;-66
2023/08/01 17:11:40;;;;;;;4.57;1.07;;;;;;;;;;6168175;28;20599;-67
2023/08/01 17:14:40;;;;;;;1.57;1.47;;;;;;;;;;6178311;28;20030;-67
2023/08/01 17:17:41;;;;;;;;;;;;;;;;;;6175548;28;20118;-67
2023/08/01 17:20:41;;;;;;;1.63;1.33;;;;;;;;;;6170566;28;20254;-67
2023/08/01 17:23:41;;;;;;;1.70;1.37;;;;;;;;;;6184509;28;20041;-66
2023/08/01 17:26:42;;;;;;;;;;;;;;;;;;6173814;28;20060;-65
2023/08/01 17:29:42;;;;;;;1.27;1.02;;;;;;;;;;6162910;28;19953;-65
2023/08/01 17:32:42;;;;;;;;;;;;;;;;;;6175494;28;20436;-66
2023/08/01 17:35:42;;;;;;;1.50;1.15;;;;;;;;;;6174895;28;19968;-65
2023/08/01 17:38:43;;;;;;;1.95;1.58;;;;;;;;;;6176895;28;20049;-65
2023/08/01 17:41:43;;;;;;;1.58;1.48;;;;;;;;;;6172884;28;20373;-66
2023/08/01 17:44:43;;;;;;;;;;;;;;;;;;6172865;28;20154;-67
2023/08/01 17:47:43;;;;;;;1.55;1.33;;;;;;;;;;6183349;28;20425;-66
2023/08/01 17:50:43;;;;;;;2.53;1.80;;;;;;;;;;6172727;28;20027;-66
2023/08/01 17:53:44;;;;;;;2.13;1.53;;;;;;;;;;6168870;28;20026;-66
2023/08/01 17:56:44;;;;;;;;;;;;;;;;;;6166282;28;20042;-67
2023/08/01 17:59:44;;;;;;;1.40;1.17;;;;;;;;;;6173669;28;19925;-66
2023/08/01 18:02:45;;;;;;;1.80;1.67;;;;;;;;;;6185591;28;20018;-66
2023/08/01 18:05:45;;;;;;;;;;;;;;;;;;6180152;28;20029;-66
2023/08/01 18:08:45;;;;;;;1.58;1.33;;;;;;;;;;6179758;28;19925;-67
2023/08/01 18:11:45;;;;;;;2.37;1.60;;;;;;;;;;6174755;28;20298;-67
2023/08/01 18:14:46;;;;;;;1.93;1.77;;;;;;;;;;6183456;28;20056;-67
2023/08/01 18:17:46;;;;;;;1.63;1.40;;;;;;;;;;6179167;28;20284;-66
2023/08/01 18:20:55;;;;;;;1.73;1.37;;;;;;;;;;6179521;28;20482;-67
2023/08/01 18:23:57;;;;;;;1.75;1.30;;;;;;;;;;6175929;28;20614;-66
2023/08/01 18:26:57;;;;;;;2.22;1.60;;;;;;;;;;6176603;28;20513;-66
2023/08/01 18:29:58;;;;;;;1.23;1.13;;;;;;;;;;6183003;28;20022;-68
2023/08/01 18:32:58;;;;;;;1.73;1.17;;;;;;;;;;6178139;28;20026;-66
2023/08/01 18:35:58;;;;;;;1.70;1.00;;;;;;;;;;6176002;28;20057;-66
2023/08/01 18:38:59;;;;;;;1.27;1.17;;;;;;;;;;6170931;28;20049;-70